ADDS METAR Data INFO
IDs: Format: Raw Decoded Include TAF

Data at: 2042 UTC 16 Dec 2017

KDEN 161953Z VRB05KT 10SM FEW140 BKN220 10/M12 A2980 RMK AO2 SLP060 T01001122 $
KDEN 161853Z 34006KT 10SM SCT140 BKN220 08/M11 A2982 RMK AO2 SLP070 T00831106 $
KDEN 161753Z 03012KT 10SM SCT140 BKN220 09/M13 A2985 RMK AO2 SLP085 T00891133 10094 20022 51018 $
KDEN 161653Z 07009G17KT 10SM SCT150 BKN220 09/M13 A2984 RMK AO2 SLP078 T00891128 $
KDEN 161553Z 05007KT 10SM BKN150 BKN220 07/M09 A2981 RMK AO2 SLP075 T00671089 $
KDEN 161453Z 30006KT 10SM BKN150 BKN220 04/M08 A2979 RMK AO2 SLP074 T00391083 53014 $
KDEN 161353Z 13005KT 10SM BKN150 BKN220 03/M08 A2977 RMK AO2 SLP061 T00331078 $
KDEN 161253Z 14005KT 10SM BKN180 BKN220 04/M08 A2975 RMK AO2 SLP050 T00391083 $
KDEN 161153Z 20006KT 10SM BKN160 BKN180 OVC220 04/M09 A2974 RMK AO2 SLP041 T00441089 10078 20028 58008 $
KDEN 161053Z 17009KT 10SM FEW140 BKN180 OVC220 06/M10 A2975 RMK AO2 SLP035 T00561100 $
KDEN 160953Z 18007KT 10SM FEW140 BKN180 OVC220 03/M09 A2976 RMK AO2 SLP042 T00331094 $
KDEN 160853Z 20008KT 10SM FEW120 SCT140 BKN220 04/M11 A2977 RMK AO2 SLP041 T00441106 56011 $
KDEN 160753Z 21008KT 10SM SCT140 OVC220 06/M11 A2977 RMK AO2 SLP039 T00611111 $
KDEN 160653Z 21012KT 10SM SCT140 BKN220 08/M12 A2978 RMK AO2 SLP041 T00781122 401721056 $
KDEN 160553Z 21007KT 10SM SCT140 BKN220 06/M11 A2981 RMK AO2 SLP059 T00561111 10128 20017 58013 $
KDEN 160453Z 21012KT 10SM FEW140 BKN220 07/M12 A2983 RMK AO2 SLP073 T00671117 $
KDEN 160353Z 22008KT 10SM FEW140 SCT220 06/M11 A2984 RMK AO2 SLP088 T00561106 $
KDEN 160253Z 21009KT 10SM FEW140 SCT220 05/M11 A2985 RMK AO2 SLP101 T00501111 58005 $
KDEN 160153Z 26003KT 10SM SCT140 SCT200 08/M15 A2986 RMK AO2 SLP101 T00781150
KDEN 160053Z 26006KT 10SM SCT140 SCT200 10/M15 A2986 RMK AO2 SLP100 T01001150
KDEN 152353Z 19006KT 10SM SCT140 SCT200 12/M16 A2987 RMK AO2 SLP097 T01221156 10172 20122 58008
KDEN 152253Z 27004KT 10SM SCT180 15/M15 A2988 RMK AO2 SLP097 T01501150
KDEN 152153Z 27008KT 10SM FEW130 SCT220 17/M16 A2990 RMK AO2 SLP101 T01671161
KDEN 152053Z 27011KT 10SM FEW130 SCT220 17/M17 A2990 RMK AO2 SLP101 T01671167 56030
KDEN 151953Z 25010KT 10SM FEW130 FEW220 16/M15 A2993 RMK AO2 SLP113 T01611150
KDEN 151853Z 26012KT 10SM CLR 15/M15 A2997 RMK AO2 SLP135 T01501150
KDEN 151753Z 24011KT 10SM FEW120 FEW220 13/M14 A3000 RMK AO2 SLP149 T01281144 10128 21017 58002
KDEN 151653Z 22009KT 10SM FEW120 FEW220 09/M13 A3002 RMK AO2 SLP164 T00891128
KDEN 151553Z 20013KT 10SM FEW120 FEW220 05/M14 A3001 RMK AO2 SLP173 T00501139
KDEN 151453Z 21014KT 10SM FEW120 FEW220 01/M15 A3001 RMK AO2 SLP182 T00111150 56010
KDEN 151353Z 21017KT 10SM FEW100 SCT220 M01/M14 A3002 RMK AO2 SLP190 T10061144
KDEN 151253Z 21016KT 10SM FEW220 M01/M14 A3002 RMK AO2 SLP181 T10111144
KDEN 151153Z 21017KT 10SM CLR M02/M14 A3004 RMK AO2 SLP189 T10171139 11017 21067 58021
KDEN 151053Z 21017KT 10SM CLR M02/M13 A3008 RMK AO2 SLP200 T10221133
KDEN 150953Z 21016KT 10SM CLR M02/M13 A3011 RMK AO2 SLP207 T10221128
KDEN 150853Z 20014KT 10SM CLR M03/M12 A3012 RMK AO2 SLP213 T10281117 56021